Time;durP1;ratioP1;P1;durP2;ratioP2;P2;SDS_P1;SDS_P2;PMS_P1;PMS_P2;Temp;Humidity;BMP_temperature;BMP_pressure;BME280_temperature;BME280_humidity;BME280_pressure;Samples;Min_cycle;Max_cycle;Signal;HPM_P1;HPM_P2
2021/12/05 00:19:31;;;;;;;;;;;;;;;;;;4165102;28;6994;-49
2021/12/05 00:21:59;;;;;;;;;;;;;;;;;;4164210;28;7010;-50
2021/12/05 00:24:22;;;;;;;;;;;;;;;;;;4164966;28;7418;-50
2021/12/05 00:26:45;;;;;;;;;;;;;;;;;;4165170;28;6999;-49
2021/12/05 00:29:13;;;;;;;;;;;;;;;;;;4165057;28;7006;-49
2021/12/05 00:31:54;;;;;;;;;;;;;;;;;;4165003;28;7705;-49
2021/12/05 00:34:34;;;;;;;;;;;;;;;;;;4164743;28;7011;-49
2021/12/05 00:43:03;;;;;;;;;;;;;;;;;;4146667;28;7073;-49
2021/12/05 00:48:21;;;;;;;;;;;;;;;;;;4164328;28;7182;-50
2021/12/05 00:51:12;;;;;;;;;;;;;;;;;;4149720;28;7058;-49
2021/12/05 00:56:22;;;;;;;;;;;;;;;;;;4161407;28;7272;-49
2021/12/05 01:04:30;;;;;;;;;;;;;;;;;;4164788;28;6978;-49
2021/12/05 01:07:10;;;;;;;;;;;;;;;;;;4164830;28;7127;-50
2021/12/05 01:09:40;;;;;;;;;;;;;;;;;;4164471;28;7030;-50
2021/12/05 01:15:03;;;;;;;;;;;;;;;;;;4163507;28;7138;-49
2021/12/05 01:17:36;;;;;;;;;;;;;;;;;;4163366;28;7033;-49
2021/12/05 01:19:58;;;;;;;;;;;;;;;;;;4163323;28;6986;-49
2021/12/05 01:22:21;;;;;;;;;;;;;;;;;;4177428;28;7190;-50
2021/12/05 01:24:54;;;;;;;;;;;;;;;;;;4164558;28;7017;-49
2021/12/05 01:27:25;;;;;;;;;;;;;;;;;;4177190;28;7040;-49
2021/12/05 01:29:52;;;;;;;;;;;;;;;;;;4177578;28;6993;-49
2021/12/05 01:32:21;;;;;;;;;;;;;;;;;;4164520;28;7050;-50
2021/12/05 01:34:58;;;;;;;;;;;;;;;;;;4164620;28;6988;-49
2021/12/05 01:37:30;;;;;;;;;;;;;;;;;;4163269;28;7166;-49
2021/12/05 01:40:03;;;;;;;;;;;;;;;;;;4177509;28;6982;-50
2021/12/05 01:45:36;;;;;;;;;;;;;;;;;;4163382;28;7003;-49
2021/12/05 01:48:33;;;;;;;;;;;;;;;;;;4163440;28;7002;-49
2021/12/05 01:51:17;;;;;;;;;;;;;;;;;;4164194;28;7041;-49
2021/12/05 01:53:58;;;;;;;;;;;;;;;;;;4164242;28;6994;-49
2021/12/05 01:59:25;;;;;;;;;;;;;;;;;;4131591;28;6987;-49
2021/12/05 02:10:44;;;;;;;;;;;;;;;;;;4177075;28;6982;-49
2021/12/05 02:31:41;;;;;;;;;;;;;;;;;;4164146;28;7041;-49
2021/12/05 02:37:02;;;;;;;;;;;;;;;;;;4163567;28;6990;-50
2021/12/05 02:39:44;;;;;;;;;;;;;;;;;;4177351;28;7003;-49
2021/12/05 02:42:11;;;;;;;;;;;;;;;;;;4163990;28;7147;-49
2021/12/05 02:44:32;;;;;;;;;;;;;;;;;;4177002;28;7068;-49
2021/12/05 02:46:59;;;;;;;;;;;;;;;;;;4179315;28;7010;-50
2021/12/05 02:49:20;;;;;;;;;;;;;;;;;;4165662;28;7061;-49
2021/12/05 02:51:50;;;;;;;;;;;;;;;;;;4179482;28;7002;-49
2021/12/05 02:54:15;;;;;;;;;;;;;;;;;;4166739;28;6982;-49
2021/12/05 02:56:41;;;;;;;;;;;;;;;;;;4165583;28;6986;-49
2021/12/05 02:59:07;;;;;;;;;;;;;;;;;;4165341;28;6986;-50
2021/12/05 03:01:34;;;;;;;;;;;;;;;;;;4166687;28;7404;-49
2021/12/05 03:03:56;;;;;;;;;;;;;;;;;;4166217;28;7019;-49
2021/12/05 03:06:21;;;;;;;;;;;;;;;;;;4179154;28;7002;-49
2021/12/05 03:08:43;;;;;;;;;;;;;;;;;;4179651;28;7225;-50
2021/12/05 03:11:04;;;;;;;;;;;;;;;;;;4165453;28;7194;-49
2021/12/05 03:13:26;;;;;;;;;;;;;;;;;;4166250;28;7167;-49
2021/12/05 03:15:47;;;;;;;;;;;;;;;;;;4179464;28;7064;-49
2021/12/05 03:18:08;;;;;;;;;;;;;;;;;;4148803;28;7430;-50
2021/12/05 03:20:30;;;;;;;;;;;;;;;;;;4148729;28;7053;-49
2021/12/05 03:22:51;;;;;;;;;;;;;;;;;;4149718;28;7165;-51
2021/12/05 03:25:15;;;;;;;;;;;;;;;;;;4148593;28;7402;-49
2021/12/05 03:27:39;;;;;;;;;;;;;;;;;;4148536;28;6986;-49
2021/12/05 03:30:01;;;;;;;;;;;;;;;;;;4149805;28;7264;-50
2021/12/05 03:32:27;;;;;;;;;;;;;;;;;;4149554;28;7019;-49
2021/12/05 03:34:48;;;;;;;;;;;;;;;;;;4149745;28;6982;-49
2021/12/05 03:37:11;;;;;;;;;;;;;;;;;;4134405;28;7051;-49
2021/12/05 03:39:34;;;;;;;;;;;;;;;;;;4134647;28;7003;-49
2021/12/05 03:41:56;;;;;;;;;;;;;;;;;;4134788;28;6994;-50
2021/12/05 03:44:19;;;;;;;;;;;;;;;;;;4147910;28;7144;-49
2021/12/05 03:46:40;;;;;;;;;;;;;;;;;;4149674;28;6998;-49
2021/12/05 03:49:03;;;;;;;;;;;;;;;;;;4162183;28;7018;-49
2021/12/05 03:51:25;;;;;;;;;;;;;;;;;;4147661;28;7007;-49
2021/12/05 03:53:46;;;;;;;;;;;;;;;;;;4162358;28;7030;-50
2021/12/05 03:56:08;;;;;;;;;;;;;;;;;;4148872;28;7457;-49
2021/12/05 03:58:31;;;;;;;;;;;;;;;;;;4147273;28;7474;-49
2021/12/05 04:00:53;;;;;;;;;;;;;;;;;;4149274;28;7168;-50
2021/12/05 04:03:14;;;;;;;;;;;;;;;;;;4149225;28;7412;-49
2021/12/05 04:05:37;;;;;;;;;;;;;;;;;;4147981;28;7171;-49
2021/12/05 04:07:59;;;;;;;;;;;;;;;;;;4148014;28;7022;-49
2021/12/05 04:10:21;;;;;;;;;;;;;;;;;;4149330;28;6998;-50
2021/12/05 04:12:43;;;;;;;;;;;;;;;;;;4147767;28;7002;-49
2021/12/05 04:15:06;;;;;;;;;;;;;;;;;;4147979;28;6990;-50
2021/12/05 04:17:28;;;;;;;;;;;;;;;;;;4147668;28;7015;-49
2021/12/05 04:19:51;;;;;;;;;;;;;;;;;;4148994;28;7014;-49
2021/12/05 04:22:12;;;;;;;;;;;;;;;;;;4147985;28;6990;-49
2021/12/05 04:24:35;;;;;;;;;;;;;;;;;;4161822;28;7045;-49
2021/12/05 04:26:57;;;;;;;;;;;;;;;;;;4147826;28;6982;-49
2021/12/05 04:29:18;;;;;;;;;;;;;;;;;;4147785;28;7129;-49
2021/12/05 04:31:41;;;;;;;;;;;;;;;;;;4147804;28;7160;-50
2021/12/05 04:34:03;;;;;;;;;;;;;;;;;;4161693;28;7014;-50
2021/12/05 04:36:24;;;;;;;;;;;;;;;;;;4147884;28;6982;-49
2021/12/05 04:38:47;;;;;;;;;;;;;;;;;;4147706;28;7224;-49
2021/12/05 04:41:08;;;;;;;;;;;;;;;;;;4147575;28;7257;-50
2021/12/05 04:43:35;;;;;;;;;;;;;;;;;;4148578;28;7045;-49
2021/12/05 04:45:57;;;;;;;;;;;;;;;;;;4147503;28;7003;-49
2021/12/05 04:48:21;;;;;;;;;;;;;;;;;;4147621;28;7006;-49
2021/12/05 04:50:44;;;;;;;;;;;;;;;;;;4161258;28;7037;-49
2021/12/05 04:53:05;;;;;;;;;;;;;;;;;;4148687;28;7413;-49
2021/12/05 04:55:26;;;;;;;;;;;;;;;;;;4147118;28;7019;-49
2021/12/05 04:57:48;;;;;;;;;;;;;;;;;;4147527;28;6995;-50
2021/12/05 05:00:12;;;;;;;;;;;;;;;;;;4147442;28;7132;-49
2021/12/05 05:02:33;;;;;;;;;;;;;;;;;;4147157;28;7068;-49
2021/12/05 05:04:55;;;;;;;;;;;;;;;;;;4148496;28;7019;-49
2021/12/05 05:07:23;;;;;;;;;;;;;;;;;;4148273;28;6967;-49
2021/12/05 05:09:43;;;;;;;;;;;;;;;;;;4147985;28;7017;-49
2021/12/05 05:12:05;;;;;;;;;;;;;;;;;;4148344;28;7001;-49
2021/12/05 05:14:27;;;;;;;;;;;;;;;;;;4148124;28;7478;-49
2021/12/05 05:16:53;;;;;;;;;;;;;;;;;;4148102;28;7104;-49
2021/12/05 05:19:16;;;;;;;;;;;;;;;;;;4147903;28;7169;-49
2021/12/05 05:21:44;;;;;;;;;;;;;;;;;;4147849;28;7020;-49
2021/12/05 05:24:21;;;;;;;;;;;;;;;;;;4148101;28;6982;-50
2021/12/05 05:27:06;;;;;;;;;;;;;;;;;;4148305;28;7304;-50
2021/12/05 05:40:17;;;;;;;;;;;;;;;;;;4161185;28;7005;-49
2021/12/05 05:43:09;;;;;;;;;;;;;;;;;;4148014;28;7030;-49
2021/12/05 05:48:29;;;;;;;;;;;;;;;;;;4148148;28;6986;-50
2021/12/05 05:50:50;;;;;;;;;;;;;;;;;;4147929;28;7419;-49
2021/12/05 05:53:13;;;;;;;;;;;;;;;;;;4147948;28;6982;-50
2021/12/05 05:55:34;;;;;;;;;;;;;;;;;;4148127;28;7002;-49
2021/12/05 05:58:05;;;;;;;;;;;;;;;;;;4147835;28;7006;-50
2021/12/05 06:00:31;;;;;;;;;;;;;;;;;;4147026;28;6978;-50
2021/12/05 06:05:36;;;;;;;;;;;;;;;;;;4138190;28;7003;-50
2021/12/05 06:07:57;;;;;;;;;;;;;;;;;;4147901;28;6983;-50
2021/12/05 06:10:21;;;;;;;;;;;;;;;;;;4147825;28;7039;-49
2021/12/05 06:12:42;;;;;;;;;;;;;;;;;;4147793;28;7042;-50
2021/12/05 06:15:03;;;;;;;;;;;;;;;;;;4147867;28;7115;-50
2021/12/05 06:17:24;;;;;;;;;;;;;;;;;;4147858;28;6990;-50
2021/12/05 06:19:45;;;;;;;;;;;;;;;;;;4147886;28;7178;-51
2021/12/05 06:22:09;;;;;;;;;;;;;;;;;;4130697;28;7034;-49
2021/12/05 06:24:30;;;;;;;;;;;;;;;;;;4118352;28;7003;-50
2021/12/05 06:26:53;;;;;;;;;;;;;;;;;;4118322;28;7054;-50
2021/12/05 06:29:17;;;;;;;;;;;;;;;;;;4118564;28;7131;-49
2021/12/05 06:31:54;;;;;;;;;;;;;;;;;;4119262;28;7007;-49
2021/12/05 06:37:12;;;;;;;;;;;;;;;;;;4143405;28;7041;-49
2021/12/05 06:39:43;;;;;;;;;;;;;;;;;;4131848;28;7007;-49
2021/12/05 06:42:20;;;;;;;;;;;;;;;;;;4133330;28;7007;-49
2021/12/05 06:47:23;;;;;;;;;;;;;;;;;;4132124;28;7145;-49
2021/12/05 06:49:45;;;;;;;;;;;;;;;;;;4133449;28;7018;-49
2021/12/05 06:52:07;;;;;;;;;;;;;;;;;;4133235;28;7003;-49
2021/12/05 06:54:27;;;;;;;;;;;;;;;;;;4133617;28;7015;-49
2021/12/05 06:56:49;;;;;;;;;;;;;;;;;;4131114;28;6986;-49
2021/12/05 06:59:11;;;;;;;;;;;;;;;;;;4133574;28;7038;-49
2021/12/05 07:01:32;;;;;;;;;;;;;;;;;;4130097;28;7073;-50
2021/12/05 07:03:53;;;;;;;;;;;;;;;;;;4133612;28;7232;-49
2021/12/05 07:06:20;;;;;;;;;;;;;;;;;;4133166;28;7040;-49
2021/12/05 07:08:43;;;;;;;;;;;;;;;;;;4133444;28;7007;-49
2021/12/05 07:11:11;;;;;;;;;;;;;;;;;;4131637;28;6983;-48
2021/12/05 07:14:12;;;;;;;;;;;;;;;;;;4131058;28;6994;-49
2021/12/05 07:20:15;;;;;;;;;;;;;;;;;;4100928;28;7185;-48
2021/12/05 07:22:44;;;;;;;;;;;;;;;;;;4115657;28;7448;-50
2021/12/05 07:25:10;;;;;;;;;;;;;;;;;;4115468;28;7031;-49
2021/12/05 07:40:48;;;;;;;;;;;;;;;;;;4115306;28;6987;-50
2021/12/05 07:43:15;;;;;;;;;;;;;;;;;;4115400;28;6987;-49
2021/12/05 07:45:41;;;;;;;;;;;;;;;;;;4115196;28;7153;-49
2021/12/05 07:48:06;;;;;;;;;;;;;;;;;;4101575;28;7110;-49
2021/12/05 07:50:38;;;;;;;;;;;;;;;;;;4115213;28;7000;-50
2021/12/05 07:53:07;;;;;;;;;;;;;;;;;;4149440;28;6978;-50
2021/12/05 07:55:35;;;;;;;;;;;;;;;;;;4149341;28;7144;-49
2021/12/05 07:58:11;;;;;;;;;;;;;;;;;;4148246;28;7430;-49
2021/12/05 08:00:39;;;;;;;;;;;;;;;;;;4149253;28;6970;-50
2021/12/05 08:16:29;;;;;;;;;;;;;;;;;;4148891;28;7105;-50
2021/12/05 08:18:50;;;;;;;;;;;;;;;;;;4149067;28;7009;-49
2021/12/05 08:21:12;;;;;;;;;;;;;;;;;;4160072;28;7451;-49
2021/12/05 08:23:34;;;;;;;;;;;;;;;;;;4165288;28;7105;-49
2021/12/05 08:26:03;;;;;;;;;;;;;;;;;;4165250;28;7183;-50
2021/12/05 08:28:38;;;;;;;;;;;;;;;;;;4165276;28;7430;-50
2021/12/05 08:31:09;;;;;;;;;;;;;;;;;;4165178;28;7106;-49
2021/12/05 08:33:51;;;;;;;;;;;;;;;;;;4164081;28;7181;-51
2021/12/05 09:29:58;;;;;;;;;;;;;;;;;;4130031;28;7458;-50
2021/12/05 09:51:38;;;;;;;;;;;;;;;;;;4163929;28;7144;-50
2021/12/05 10:07:38;;;;;;;;;;;;;;;;;;4165635;28;7058;-49
2021/12/05 10:10:11;;;;;;;;;;;;;;;;;;4166043;28;7006;-49
2021/12/05 10:12:55;;;;;;;;;;;;;;;;;;4150358;28;7030;-49
2021/12/05 10:15:35;;;;;;;;;;;;;;;;;;4150653;28;7006;-49
2021/12/05 10:18:31;;;;;;;;;;;;;;;;;;4150658;28;7002;-49
2021/12/05 10:26:38;;;;;;;;;;;;;;;;;;4158226;28;7045;-49
2021/12/05 10:34:40;;;;;;;;;;;;;;;;;;4166708;28;7010;-49
2021/12/05 10:37:08;;;;;;;;;;;;;;;;;;4166787;28;8032;-50
2021/12/05 10:39:29;;;;;;;;;;;;;;;;;;4166809;28;7173;-49
2021/12/05 10:42:12;;;;;;;;;;;;;;;;;;4166138;28;7970;-49
2021/12/05 10:44:42;;;;;;;;;;;;;;;;;;4166648;28;6990;-49
2021/12/05 10:47:05;;;;;;;;;;;;;;;;;;4166653;28;7048;-49
2021/12/05 10:49:26;;;;;;;;;;;;;;;;;;4166572;28;6990;-49
2021/12/05 10:51:48;;;;;;;;;;;;;;;;;;4166534;28;7045;-50
2021/12/05 10:54:09;;;;;;;;;;;;;;;;;;4166493;28;6978;-49
2021/12/05 10:56:30;;;;;;;;;;;;;;;;;;4166051;28;7410;-50
2021/12/05 10:58:53;;;;;;;;;;;;;;;;;;4166537;28;6982;-49
2021/12/05 11:01:16;;;;;;;;;;;;;;;;;;4166468;28;7018;-50
2021/12/05 11:03:38;;;;;;;;;;;;;;;;;;4166391;28;6994;-50
2021/12/05 11:06:00;;;;;;;;;;;;;;;;;;4165425;28;7128;-49
2021/12/05 11:08:34;;;;;;;;;;;;;;;;;;4166264;28;7010;-49
2021/12/05 11:11:05;;;;;;;;;;;;;;;;;;4165876;28;7057;-50
2021/12/05 11:13:26;;;;;;;;;;;;;;;;;;4166217;28;7207;-50
2021/12/05 11:15:48;;;;;;;;;;;;;;;;;;4166263;28;7014;-49
2021/12/05 11:18:09;;;;;;;;;;;;;;;;;;4166167;28;7263;-49
2021/12/05 11:20:34;;;;;;;;;;;;;;;;;;4165957;28;7146;-50
2021/12/05 11:22:55;;;;;;;;;;;;;;;;;;4165976;28;7031;-50
2021/12/05 11:25:17;;;;;;;;;;;;;;;;;;4165621;28;7034;-49
2021/12/05 11:27:39;;;;;;;;;;;;;;;;;;4165919;28;7002;-49
2021/12/05 11:30:02;;;;;;;;;;;;;;;;;;4166068;28;6990;-49
2021/12/05 11:32:28;;;;;;;;;;;;;;;;;;4148051;28;7125;-50
2021/12/05 11:34:49;;;;;;;;;;;;;;;;;;4165861;28;7084;-49
2021/12/05 11:37:12;;;;;;;;;;;;;;;;;;4165166;28;7506;-49
2021/12/05 11:39:33;;;;;;;;;;;;;;;;;;4165780;28;7073;-49
2021/12/05 11:41:56;;;;;;;;;;;;;;;;;;4165280;28;7152;-49
2021/12/05 11:44:17;;;;;;;;;;;;;;;;;;4165694;28;6996;-49
2021/12/05 11:46:44;;;;;;;;;;;;;;;;;;4165503;28;7418;-50
2021/12/05 11:49:06;;;;;;;;;;;;;;;;;;4165632;28;7113;-49
2021/12/05 11:51:28;;;;;;;;;;;;;;;;;;4165651;28;6990;-50
2021/12/05 11:53:51;;;;;;;;;;;;;;;;;;4165545;28;7510;-50
2021/12/05 11:56:17;;;;;;;;;;;;;;;;;;4164919;28;7006;-49
2021/12/05 11:58:39;;;;;;;;;;;;;;;;;;4165543;28;7077;-50
2021/12/05 12:01:07;;;;;;;;;;;;;;;;;;4165392;28;6978;-49
2021/12/05 12:03:32;;;;;;;;;;;;;;;;;;4165446;28;7103;-49
2021/12/05 12:05:53;;;;;;;;;;;;;;;;;;4165434;28;7418;-50
2021/12/05 12:08:15;;;;;;;;;;;;;;;;;;4165327;28;7371;-49
2021/12/05 12:10:38;;;;;;;;;;;;;;;;;;4164915;28;6986;-50
2021/12/05 12:13:00;;;;;;;;;;;;;;;;;;4165310;28;6998;-49
2021/12/05 12:15:21;;;;;;;;;;;;;;;;;;4165060;28;7015;-50
2021/12/05 12:17:43;;;;;;;;;;;;;;;;;;4164995;28;6994;-49
2021/12/05 12:20:04;;;;;;;;;;;;;;;;;;4165088;28;7137;-49
2021/12/05 12:22:26;;;;;;;;;;;;;;;;;;4165171;28;7006;-49
2021/12/05 12:24:48;;;;;;;;;;;;;;;;;;4165112;28;6970;-49
2021/12/05 12:27:13;;;;;;;;;;;;;;;;;;4164382;28;6982;-51
2021/12/05 12:29:34;;;;;;;;;;;;;;;;;;4165009;28;7002;-50
2021/12/05 12:31:59;;;;;;;;;;;;;;;;;;4164736;28;7004;-50
2021/12/05 12:34:21;;;;;;;;;;;;;;;;;;4164907;28;7176;-49
2021/12/05 12:36:43;;;;;;;;;;;;;;;;;;4164633;28;7010;-50
2021/12/05 12:39:05;;;;;;;;;;;;;;;;;;4164409;28;7027;-50
2021/12/05 12:41:26;;;;;;;;;;;;;;;;;;4163140;28;7163;-49
2021/12/05 12:43:51;;;;;;;;;;;;;;;;;;4164555;28;6982;-50
2021/12/05 12:46:20;;;;;;;;;;;;;;;;;;4164804;28;6974;-49
2021/12/05 12:48:41;;;;;;;;;;;;;;;;;;4164610;28;6994;-49
2021/12/05 12:51:02;;;;;;;;;;;;;;;;;;4164688;28;6998;-50
2021/12/05 12:53:24;;;;;;;;;;;;;;;;;;4164231;28;6970;-50
2021/12/05 12:55:50;;;;;;;;;;;;;;;;;;4152391;28;6996;-50
2021/12/05 12:58:13;;;;;;;;;;;;;;;;;;4163815;28;6998;-49
2021/12/05 13:00:36;;;;;;;;;;;;;;;;;;4164229;28;7465;-50
2021/12/05 13:03:00;;;;;;;;;;;;;;;;;;4164576;28;7144;-50
2021/12/05 13:05:36;;;;;;;;;;;;;;;;;;4164469;28;6966;-50
2021/12/05 13:10:42;;;;;;;;;;;;;;;;;;4163929;28;7003;-50
2021/12/05 13:13:05;;;;;;;;;;;;;;;;;;4164212;28;7037;-49
2021/12/05 13:15:41;;;;;;;;;;;;;;;;;;4164058;28;6994;-49
2021/12/05 13:18:04;;;;;;;;;;;;;;;;;;4164066;28;7181;-50
2021/12/05 13:20:26;;;;;;;;;;;;;;;;;;4164237;28;6982;-49
2021/12/05 13:23:01;;;;;;;;;;;;;;;;;;4164253;28;6990;-50
2021/12/05 13:25:23;;;;;;;;;;;;;;;;;;4163561;28;6990;-50
2021/12/05 13:27:44;;;;;;;;;;;;;;;;;;4164046;28;7155;-49
2021/12/05 13:30:06;;;;;;;;;;;;;;;;;;4163479;28;7023;-49
2021/12/05 13:32:30;;;;;;;;;;;;;;;;;;4164139;28;7140;-49
2021/12/05 13:34:51;;;;;;;;;;;;;;;;;;4164212;28;7056;-51
2021/12/05 13:37:39;;;;;;;;;;;;;;;;;;4164102;28;7002;-49
2021/12/05 13:40:11;;;;;;;;;;;;;;;;;;4164091;28;7002;-50
2021/12/05 13:42:39;;;;;;;;;;;;;;;;;;4161774;28;7127;-49
2021/12/05 13:45:08;;;;;;;;;;;;;;;;;;4164054;28;7132;-50
2021/12/05 13:47:32;;;;;;;;;;;;;;;;;;4164098;28;8220;-51
2021/12/05 13:49:53;;;;;;;;;;;;;;;;;;4164087;28;7177;-49
2021/12/05 13:52:30;;;;;;;;;;;;;;;;;;4164028;28;6998;-49
2021/12/05 13:54:51;;;;;;;;;;;;;;;;;;4164062;28;7430;-50
2021/12/05 13:57:12;;;;;;;;;;;;;;;;;;4163482;28;6971;-50
2021/12/05 13:59:34;;;;;;;;;;;;;;;;;;4165107;28;7139;-48
2021/12/05 14:01:56;;;;;;;;;;;;;;;;;;4164361;28;7036;-48
2021/12/05 14:04:27;;;;;;;;;;;;;;;;;;4163997;28;7018;-48
2021/12/05 14:06:53;;;;;;;;;;;;;;;;;;4149198;28;6982;-48
2021/12/05 14:09:15;;;;;;;;;;;;;;;;;;4147613;28;6995;-47
2021/12/05 14:11:36;;;;;;;;;;;;;;;;;;4158696;28;7029;-47
2021/12/05 14:13:57;;;;;;;;;;;;;;;;;;4163922;28;7269;-47
2021/12/05 14:16:19;;;;;;;;;;;;;;;;;;4163787;28;6999;-48
2021/12/05 14:18:41;;;;;;;;;;;;;;;;;;4163091;28;7124;-48
2021/12/05 14:21:11;;;;;;;;;;;;;;;;;;4163212;28;7030;-48
2021/12/05 14:23:33;;;;;;;;;;;;;;;;;;4148113;28;7053;-47
2021/12/05 14:25:54;;;;;;;;;;;;;;;;;;4152798;28;7010;-47
2021/12/05 14:28:15;;;;;;;;;;;;;;;;;;4163484;28;7007;-48
2021/12/05 14:30:38;;;;;;;;;;;;;;;;;;4163884;28;6986;-47
2021/12/05 14:33:02;;;;;;;;;;;;;;;;;;4163461;28;7003;-47
2021/12/05 14:35:23;;;;;;;;;;;;;;;;;;4163607;28;7021;-47
2021/12/05 14:37:47;;;;;;;;;;;;;;;;;;4163398;28;6975;-48
2021/12/05 14:40:09;;;;;;;;;;;;;;;;;;4163420;28;7042;-48
2021/12/05 14:42:30;;;;;;;;;;;;;;;;;;4150046;28;7053;-47
2021/12/05 14:44:52;;;;;;;;;;;;;;;;;;4150263;28;7139;-48
2021/12/05 14:47:14;;;;;;;;;;;;;;;;;;4150242;28;7010;-48
2021/12/05 14:49:36;;;;;;;;;;;;;;;;;;4149999;28;7045;-48
2021/12/05 14:51:58;;;;;;;;;;;;;;;;;;4153819;28;7007;-47
2021/12/05 14:54:21;;;;;;;;;;;;;;;;;;4163909;28;7011;-48
2021/12/05 14:56:42;;;;;;;;;;;;;;;;;;4164524;28;7081;-48
2021/12/05 14:59:05;;;;;;;;;;;;;;;;;;4164933;28;6978;-48
2021/12/05 15:01:27;;;;;;;;;;;;;;;;;;4165497;28;7006;-48
2021/12/05 15:03:50;;;;;;;;;;;;;;;;;;4165996;28;7065;-48
2021/12/05 15:06:12;;;;;;;;;;;;;;;;;;4155719;28;7270;-47
2021/12/05 15:08:34;;;;;;;;;;;;;;;;;;4165420;28;6994;-48
2021/12/05 15:10:58;;;;;;;;;;;;;;;;;;4165583;28;6990;-48
2021/12/05 15:13:20;;;;;;;;;;;;;;;;;;4166061;28;6998;-47
2021/12/05 15:15:41;;;;;;;;;;;;;;;;;;4148479;28;7068;-48
2021/12/05 15:18:02;;;;;;;;;;;;;;;;;;4149765;28;6979;-48
2021/12/05 15:20:24;;;;;;;;;;;;;;;;;;4132307;28;7138;-48
2021/12/05 15:22:48;;;;;;;;;;;;;;;;;;4133547;28;6986;-48
2021/12/05 15:25:10;;;;;;;;;;;;;;;;;;4133514;28;7039;-48
2021/12/05 15:27:33;;;;;;;;;;;;;;;;;;4133403;28;6986;-47
2021/12/05 15:29:54;;;;;;;;;;;;;;;;;;4132365;28;6983;-48
2021/12/05 15:32:16;;;;;;;;;;;;;;;;;;4133493;28;6987;-48
2021/12/05 15:34:37;;;;;;;;;;;;;;;;;;4133403;28;7043;-47
2021/12/05 15:36:59;;;;;;;;;;;;;;;;;;4147373;28;7461;-48
2021/12/05 15:39:21;;;;;;;;;;;;;;;;;;4149381;28;7041;-48
2021/12/05 15:41:42;;;;;;;;;;;;;;;;;;4148973;28;6991;-49
2021/12/05 15:44:05;;;;;;;;;;;;;;;;;;4149389;28;6990;-47
2021/12/05 15:46:27;;;;;;;;;;;;;;;;;;4149243;28;6991;-48
2021/12/05 15:48:50;;;;;;;;;;;;;;;;;;4149055;28;6994;-49
2021/12/05 15:51:11;;;;;;;;;;;;;;;;;;4149147;28;7029;-48
2021/12/05 15:53:33;;;;;;;;;;;;;;;;;;4148956;28;6995;-47
2021/12/05 15:55:57;;;;;;;;;;;;;;;;;;4148762;28;7402;-48
2021/12/05 15:58:22;;;;;;;;;;;;;;;;;;4149975;28;6982;-47
2021/12/05 16:00:46;;;;;;;;;;;;;;;;;;4148739;28;7166;-48
2021/12/05 16:03:08;;;;;;;;;;;;;;;;;;4149081;28;6986;-48
2021/12/05 16:05:29;;;;;;;;;;;;;;;;;;4149005;28;6990;-48
2021/12/05 16:07:50;;;;;;;;;;;;;;;;;;4148841;28;6987;-48
2021/12/05 16:10:16;;;;;;;;;;;;;;;;;;4148771;28;7742;-48
2021/12/05 16:12:38;;;;;;;;;;;;;;;;;;4148942;28;7370;-48
2021/12/05 16:15:02;;;;;;;;;;;;;;;;;;4148899;28;6983;-47
2021/12/05 16:17:27;;;;;;;;;;;;;;;;;;4148761;28;6986;-49
2021/12/05 16:20:07;;;;;;;;;;;;;;;;;;4148794;28;7009;-48
2021/12/05 16:22:28;;;;;;;;;;;;;;;;;;4132441;28;6990;-47
2021/12/05 16:24:50;;;;;;;;;;;;;;;;;;4132248;28;7006;-47
2021/12/05 16:27:12;;;;;;;;;;;;;;;;;;4131771;28;7007;-48
2021/12/05 16:29:35;;;;;;;;;;;;;;;;;;4132506;28;6999;-48
2021/12/05 16:31:57;;;;;;;;;;;;;;;;;;4132452;28;6994;-48
2021/12/05 16:34:20;;;;;;;;;;;;;;;;;;4132368;28;6974;-48
2021/12/05 16:36:47;;;;;;;;;;;;;;;;;;4123762;28;7019;-48
2021/12/05 16:39:09;;;;;;;;;;;;;;;;;;4130503;28;7331;-48
2021/12/05 16:41:31;;;;;;;;;;;;;;;;;;4131135;28;6986;-48
2021/12/05 16:43:57;;;;;;;;;;;;;;;;;;4131849;28;7156;-47
2021/12/05 16:46:20;;;;;;;;;;;;;;;;;;4126939;28;7056;-48
2021/12/05 16:48:41;;;;;;;;;;;;;;;;;;4132073;28;7007;-48
2021/12/05 16:51:11;;;;;;;;;;;;;;;;;;4131571;28;7019;-47
2021/12/05 16:53:32;;;;;;;;;;;;;;;;;;4131678;28;7007;-47
2021/12/05 16:55:59;;;;;;;;;;;;;;;;;;4131243;28;7327;-47
2021/12/05 16:58:20;;;;;;;;;;;;;;;;;;4131956;28;7038;-48
2021/12/05 17:00:42;;;;;;;;;;;;;;;;;;4131690;28;7007;-48
2021/12/05 17:03:05;;;;;;;;;;;;;;;;;;4131961;28;7007;-47
2021/12/05 17:05:27;;;;;;;;;;;;;;;;;;4131349;28;6975;-48
2021/12/05 17:07:55;;;;;;;;;;;;;;;;;;4121951;28;6982;-49
2021/12/05 17:10:34;;;;;;;;;;;;;;;;;;4131217;28;7037;-48
2021/12/05 17:12:56;;;;;;;;;;;;;;;;;;4131920;28;6998;-47
2021/12/05 17:15:18;;;;;;;;;;;;;;;;;;4131804;28;6991;-48
2021/12/05 17:17:41;;;;;;;;;;;;;;;;;;4131783;28;6990;-47
2021/12/05 17:20:17;;;;;;;;;;;;;;;;;;4134522;28;6987;-47
2021/12/05 17:22:38;;;;;;;;;;;;;;;;;;4164056;28;7017;-48
2021/12/05 17:25:02;;;;;;;;;;;;;;;;;;4164359;28;7044;-48
2021/12/05 17:27:23;;;;;;;;;;;;;;;;;;4147732;28;6974;-48
2021/12/05 17:29:44;;;;;;;;;;;;;;;;;;4147744;28;7182;-47
2021/12/05 17:32:07;;;;;;;;;;;;;;;;;;4147660;28;7096;-48
2021/12/05 17:34:29;;;;;;;;;;;;;;;;;;4147322;28;7100;-47
2021/12/05 17:36:54;;;;;;;;;;;;;;;;;;4160921;28;6978;-48
2021/12/05 17:39:17;;;;;;;;;;;;;;;;;;4164005;28;6995;-47
2021/12/05 17:41:39;;;;;;;;;;;;;;;;;;4163449;28;7463;-47
2021/12/05 17:44:02;;;;;;;;;;;;;;;;;;4164097;28;7394;-47
2021/12/05 17:46:23;;;;;;;;;;;;;;;;;;4164080;28;6998;-48
2021/12/05 17:48:44;;;;;;;;;;;;;;;;;;4163558;28;7019;-48
2021/12/05 17:51:06;;;;;;;;;;;;;;;;;;4163708;28;7003;-47
2021/12/05 17:53:30;;;;;;;;;;;;;;;;;;4163551;28;7047;-48
2021/12/05 17:55:59;;;;;;;;;;;;;;;;;;4163606;28;7177;-48
2021/12/05 17:58:34;;;;;;;;;;;;;;;;;;4164122;28;7008;-47
2021/12/05 18:02:36;;;;;;;;;;;;;;;;;;4163663;28;7003;-48
2021/12/05 18:03:38;;;;;;;;;;;;;;;;;;4163449;28;6991;-47
2021/12/05 18:06:00;;;;;;;;;;;;;;;;;;4164024;28;7037;-48
2021/12/05 18:08:22;;;;;;;;;;;;;;;;;;4163622;28;6994;-48
2021/12/05 18:10:47;;;;;;;;;;;;;;;;;;4163403;28;6998;-47
2021/12/05 18:13:10;;;;;;;;;;;;;;;;;;4163037;28;7034;-48
2021/12/05 18:15:35;;;;;;;;;;;;;;;;;;4161607;28;6978;-48
2021/12/05 18:17:57;;;;;;;;;;;;;;;;;;4165462;28;7021;-47
2021/12/05 18:20:22;;;;;;;;;;;;;;;;;;4164802;28;7057;-48
2021/12/05 18:22:43;;;;;;;;;;;;;;;;;;4151574;28;7580;-47
2021/12/05 18:25:04;;;;;;;;;;;;;;;;;;4165513;28;7025;-47
2021/12/05 18:27:26;;;;;;;;;;;;;;;;;;4150383;28;7128;-48
2021/12/05 18:29:47;;;;;;;;;;;;;;;;;;4150167;28;7042;-48
2021/12/05 18:32:13;;;;;;;;;;;;;;;;;;4150247;28;7010;-47
2021/12/05 18:34:34;;;;;;;;;;;;;;;;;;4149800;28;7006;-48
2021/12/05 18:36:56;;;;;;;;;;;;;;;;;;4163883;28;7015;-48
2021/12/05 18:39:21;;;;;;;;;;;;;;;;;;4164510;28;6982;-49
2021/12/05 18:41:42;;;;;;;;;;;;;;;;;;4166069;28;6966;-48
2021/12/05 18:44:09;;;;;;;;;;;;;;;;;;4166356;28;7006;-48
2021/12/05 18:46:31;;;;;;;;;;;;;;;;;;4166264;28;7444;-49
2021/12/05 18:48:57;;;;;;;;;;;;;;;;;;4166294;28;7185;-47
2021/12/05 18:51:22;;;;;;;;;;;;;;;;;;4150841;28;7146;-48
2021/12/05 18:53:44;;;;;;;;;;;;;;;;;;4165075;28;7037;-48
2021/12/05 18:56:05;;;;;;;;;;;;;;;;;;4165880;28;7287;-47
2021/12/05 18:58:27;;;;;;;;;;;;;;;;;;4165781;28;6994;-49
2021/12/05 19:06:20;;;;;;;;;;;;;;;;;;4164604;28;7022;-51
2021/12/05 19:09:06;;;;;;;;;;;;;;;;;;4166125;28;6995;-49
2021/12/05 19:11:43;;;;;;;;;;;;;;;;;;4165529;28;7492;-50
2021/12/05 19:14:04;;;;;;;;;;;;;;;;;;4165701;28;7170;-49
2021/12/05 19:16:26;;;;;;;;;;;;;;;;;;4150487;28;7215;-50
2021/12/05 19:18:47;;;;;;;;;;;;;;;;;;4165962;28;7006;-50
2021/12/05 19:21:08;;;;;;;;;;;;;;;;;;4150765;28;7043;-50
2021/12/05 19:23:33;;;;;;;;;;;;;;;;;;4165932;28;7002;-50
2021/12/05 19:25:55;;;;;;;;;;;;;;;;;;4165318;28;7214;-49
2021/12/05 19:28:19;;;;;;;;;;;;;;;;;;4165147;28;7366;-50
2021/12/05 19:30:41;;;;;;;;;;;;;;;;;;4165485;28;7113;-50
2021/12/05 19:33:02;;;;;;;;;;;;;;;;;;4165218;28;7009;-50
2021/12/05 19:35:26;;;;;;;;;;;;;;;;;;4165623;28;7382;-50
2021/12/05 19:37:49;;;;;;;;;;;;;;;;;;4165485;28;6970;-50
2021/12/05 19:40:14;;;;;;;;;;;;;;;;;;4165341;28;7007;-50
2021/12/05 19:42:36;;;;;;;;;;;;;;;;;;4148341;28;7037;-50
2021/12/05 19:44:58;;;;;;;;;;;;;;;;;;4149137;28;7002;-50
2021/12/05 19:47:19;;;;;;;;;;;;;;;;;;4149280;28;6979;-49
2021/12/05 19:49:41;;;;;;;;;;;;;;;;;;4161412;28;7008;-50
2021/12/05 19:52:02;;;;;;;;;;;;;;;;;;4165465;28;6990;-50
2021/12/05 19:54:23;;;;;;;;;;;;;;;;;;4165527;28;6998;-50
2021/12/05 19:56:46;;;;;;;;;;;;;;;;;;4165197;28;7093;-50
2021/12/05 19:59:07;;;;;;;;;;;;;;;;;;4165356;28;7151;-50
2021/12/05 20:01:29;;;;;;;;;;;;;;;;;;4165137;28;7281;-50
2021/12/05 20:03:51;;;;;;;;;;;;;;;;;;4164372;28;6966;-51
2021/12/05 20:06:12;;;;;;;;;;;;;;;;;;4150154;28;7010;-50
2021/12/05 20:08:36;;;;;;;;;;;;;;;;;;4164740;28;7118;-50
2021/12/05 20:10:59;;;;;;;;;;;;;;;;;;4162674;28;7327;-50
2021/12/05 20:13:22;;;;;;;;;;;;;;;;;;4162440;28;7029;-51
2021/12/05 20:15:45;;;;;;;;;;;;;;;;;;4164034;28;6995;-50
2021/12/05 20:18:08;;;;;;;;;;;;;;;;;;4163847;28;7006;-51
2021/12/05 20:20:29;;;;;;;;;;;;;;;;;;4164904;28;7156;-50
2021/12/05 20:22:53;;;;;;;;;;;;;;;;;;4165108;28;7030;-50
2021/12/05 20:25:15;;;;;;;;;;;;;;;;;;4163646;28;7099;-50
2021/12/05 20:27:38;;;;;;;;;;;;;;;;;;4150110;28;6986;-50
2021/12/05 20:30:01;;;;;;;;;;;;;;;;;;4165052;28;7002;-50
2021/12/05 20:32:22;;;;;;;;;;;;;;;;;;4165082;28;7278;-50
2021/12/05 20:34:44;;;;;;;;;;;;;;;;;;4165022;28;7017;-50
2021/12/05 20:37:07;;;;;;;;;;;;;;;;;;4164767;28;6978;-50
2021/12/05 20:39:28;;;;;;;;;;;;;;;;;;4163350;28;7025;-50